createdAt,value
2022-08-03T00:04:53.727Z,15.46
2022-08-03T00:09:55.599Z,15.43
2022-08-03T00:14:57.440Z,15.35
2022-08-03T00:19:59.337Z,15.20
2022-08-03T00:25:01.307Z,15.10
2022-08-03T00:30:03.673Z,15.03
2022-08-03T00:35:07.971Z,14.97
2022-08-03T00:40:13.071Z,14.88
2022-08-03T00:45:14.933Z,14.88
2022-08-03T00:50:18.507Z,14.86
2022-08-03T00:55:21.278Z,14.78
2022-08-03T01:00:25.706Z,14.69
2022-08-03T01:05:28.227Z,14.62
2022-08-03T01:10:39.148Z,14.65
2022-08-03T01:15:54.710Z,14.57
2022-08-03T01:20:59.629Z,14.55
2022-08-03T01:26:56.994Z,14.53
2022-08-03T01:32:57.983Z,14.47
2022-08-03T01:37:38.898Z,14.37
2022-08-03T01:42:41.763Z,14.35
2022-08-03T01:47:45.814Z,14.27
2022-08-03T01:52:48.291Z,14.19
2022-08-03T01:58:05.336Z,14.11
2022-08-03T02:03:09.917Z,14.05
2022-08-03T02:08:14.342Z,14.00
2022-08-03T02:13:18.127Z,13.99
2022-08-03T02:18:21.234Z,13.99
2022-08-03T02:23:23.187Z,13.98
2022-08-03T02:28:32.221Z,13.91
2022-08-03T02:33:41.445Z,13.88
2022-08-03T02:38:44.540Z,13.80
2022-08-03T02:44:05.946Z,13.72
2022-08-03T02:49:40.830Z,13.65
2022-08-03T02:54:34.560Z,13.63
2022-08-03T02:59:37.687Z,13.65
2022-08-03T03:04:43.165Z,13.60
2022-08-03T03:10:04.990Z,13.53
2022-08-03T03:15:07.183Z,13.46
2022-08-03T03:20:09.568Z,13.40
2022-08-03T03:25:11.935Z,13.43
2022-08-03T03:30:13.951Z,13.42
2022-08-03T03:35:16.767Z,13.34
2022-08-03T03:40:19.564Z,13.32
2022-08-03T03:45:24.349Z,13.41
2022-08-03T03:50:27.545Z,13.38
2022-08-03T03:55:30.514Z,13.41
2022-08-03T04:00:32.480Z,13.43
2022-08-03T04:05:52.823Z,13.47
2022-08-03T04:11:12.875Z,13.54
2022-08-03T04:16:18.134Z,13.57
2022-08-03T04:21:23.625Z,13.65
2022-08-03T04:26:29.048Z,13.73
2022-08-03T04:31:30.906Z,13.82
2022-08-03T04:36:37.370Z,13.98
2022-08-03T04:42:07.360Z,14.10
2022-08-03T04:47:02.855Z,14.25
2022-08-03T04:52:07.405Z,14.47
2022-08-03T04:57:10.618Z,14.64
2022-08-03T05:02:24.470Z,14.76
2022-08-03T05:07:26.371Z,14.93
2022-08-03T05:12:38.153Z,15.12
2022-08-03T05:17:40.235Z,15.30
2022-08-03T05:22:42.036Z,15.52
2022-08-03T05:27:43.844Z,15.76
2022-08-03T05:32:45.838Z,16.02
2022-08-03T05:37:54.593Z,16.59
2022-08-03T05:42:57.194Z,17.37
2022-08-03T05:48:00.048Z,17.69
2022-08-03T05:53:01.976Z,18.16
2022-08-03T05:58:03.997Z,18.45
2022-08-03T06:03:06.252Z,18.61
2022-08-03T06:08:08.129Z,18.75
2022-08-03T06:13:10.081Z,19.19
2022-08-03T06:18:11.924Z,19.63
2022-08-03T06:23:16.085Z,20.05
2022-08-03T06:28:51.704Z,20.22
2022-08-03T06:34:31.653Z,20.36
2022-08-03T06:39:04.398Z,20.22
2022-08-03T06:44:06.200Z,20.54
2022-08-03T06:49:08.337Z,20.77
2022-08-03T06:54:10.372Z,21.06
2022-08-03T07:00:08.126Z,21.22
2022-08-03T07:04:34.062Z,21.57
2022-08-03T07:09:35.914Z,21.76
2022-08-03T07:14:40.210Z,21.82
2022-08-03T07:19:42.018Z,22.15
2022-08-03T07:24:43.992Z,22.37
2022-08-03T07:29:45.807Z,22.57
2022-08-03T07:34:47.636Z,22.94
2022-08-03T07:39:49.515Z,23.22
2022-08-03T07:44:51.392Z,23.59
2022-08-03T07:49:53.218Z,23.76
2022-08-03T07:54:55.168Z,24.08
2022-08-03T08:00:01.803Z,24.26
2022-08-03T08:05:13.920Z,24.54
2022-08-03T08:10:15.904Z,24.92
2022-08-03T08:15:17.813Z,25.28
2022-08-03T08:20:28.086Z,25.47
2022-08-03T08:25:33.944Z,25.96
2022-08-03T08:30:35.913Z,25.95
2022-08-03T08:35:38.997Z,26.08
2022-08-03T08:40:40.938Z,26.09
2022-08-03T08:45:42.882Z,26.53
2022-08-03T08:50:47.696Z,26.82
2022-08-03T08:55:56.604Z,27.25
2022-08-03T09:01:01.912Z,27.62
2022-08-03T09:06:04.460Z,27.83
2022-08-03T09:11:07.668Z,28.08
2022-08-03T09:16:12.131Z,28.53
2022-08-03T09:21:32.019Z,28.60
2022-08-03T09:26:36.325Z,28.92
2022-08-03T09:31:43.310Z,28.77
2022-08-03T09:36:50.851Z,29.28
2022-08-03T09:42:14.767Z,29.43
2022-08-03T09:47:28.824Z,29.37
2022-08-03T09:52:49.125Z,28.80
2022-08-03T09:57:52.403Z,29.42
2022-08-03T10:03:05.582Z,29.84
2022-08-03T10:08:15.523Z,30.10
2022-08-03T10:13:18.965Z,30.62
2022-08-03T10:18:20.760Z,30.48
2022-08-03T10:23:23.123Z,30.64
2022-08-03T10:28:25.448Z,30.69
2022-08-03T10:33:51.416Z,31.20
2022-08-03T10:38:57.137Z,30.89
2022-08-03T10:43:59.813Z,30.67
2022-08-03T10:49:03.165Z,31.06
2022-08-03T10:54:05.241Z,30.60
2022-08-03T10:59:07.131Z,30.76
2022-08-03T11:04:18.540Z,31.57
2022-08-03T11:09:20.466Z,32.29
2022-08-03T11:14:22.659Z,32.96
2022-08-03T11:19:57.662Z,35.34
2022-08-03T11:25:00.889Z,37.64
2022-08-03T11:30:08.850Z,38.23
2022-08-03T11:35:27.036Z,39.49
2022-08-03T11:40:48.962Z,40.86
2022-08-03T11:46:02.103Z,41.83
2022-08-03T11:51:18.709Z,42.52
2022-08-03T11:56:20.670Z,41.44
2022-08-03T12:01:23.999Z,41.06
2022-08-03T12:06:25.799Z,44.47
2022-08-03T12:11:29.263Z,42.04
2022-08-03T12:16:31.322Z,42.95
2022-08-03T12:21:35.340Z,43.23
2022-08-03T12:26:58.458Z,44.87
2022-08-03T12:32:01.534Z,46.35
2022-08-03T12:37:19.292Z,47.63
2022-08-03T12:42:31.662Z,47.65
2022-08-03T12:47:53.622Z,46.55
2022-08-03T12:52:57.211Z,48.80
2022-08-03T12:58:03.411Z,48.61
2022-08-03T13:08:29.437Z,47.93
2022-08-03T13:13:41.046Z,48.93
2022-08-03T13:18:43.029Z,51.07
2022-08-03T13:23:46.851Z,49.78
2022-08-03T13:28:48.840Z,51.09
2022-08-03T13:33:50.688Z,50.78
2022-08-03T13:38:52.483Z,50.81
2022-08-03T13:44:25.157Z,51.85
2022-08-03T13:49:20.597Z,49.70
2022-08-03T13:54:22.824Z,51.42
2022-08-03T13:59:26.067Z,52.48
2022-08-03T14:04:27.936Z,51.94
2022-08-03T14:09:29.783Z,49.11
2022-08-03T14:14:31.600Z,50.51
2022-08-03T14:19:33.458Z,48.73
2022-08-03T14:24:54.656Z,51.16
2022-08-03T14:29:59.839Z,53.36
2022-08-03T14:35:01.641Z,49.51
2022-08-03T14:40:04.687Z,52.40
2022-08-03T14:45:09.404Z,53.95
2022-08-03T14:50:37.582Z,53.60
2022-08-03T14:55:50.296Z,55.40
2022-08-03T15:00:55.464Z,54.88
2022-08-03T15:05:57.562Z,55.97
2022-08-03T15:10:59.568Z,55.76
2022-08-03T15:16:01.440Z,55.22
2022-08-03T15:21:03.288Z,51.67
2022-08-03T15:26:30.404Z,47.43
2022-08-03T15:31:27.015Z,42.74
2022-08-03T15:36:28.800Z,38.75
2022-08-03T15:41:30.914Z,37.25
2022-08-03T15:46:32.773Z,35.48
2022-08-03T15:51:34.617Z,34.98
2022-08-03T15:56:38.687Z,34.33
2022-08-03T16:01:40.867Z,33.92
2022-08-03T16:06:42.815Z,33.53
2022-08-03T16:11:44.694Z,33.24
2022-08-03T16:16:46.671Z,33.12
2022-08-03T16:21:49.988Z,32.62
2022-08-03T16:26:52.107Z,32.26
2022-08-03T16:31:54.172Z,32.26
2022-08-03T16:36:55.997Z,32.51
2022-08-03T16:42:00.608Z,32.41
2022-08-03T16:47:03.876Z,31.87
2022-08-03T16:52:07.171Z,31.54
2022-08-03T16:57:09.162Z,31.26
2022-08-03T17:02:25.987Z,30.91
2022-08-03T17:07:30.342Z,30.65
2022-08-03T17:12:32.335Z,30.24
2022-08-03T17:17:37.641Z,29.88
2022-08-03T17:23:34.577Z,29.39
2022-08-03T17:28:52.165Z,28.97
2022-08-03T17:34:01.997Z,28.61
2022-08-03T17:39:06.774Z,28.43
2022-08-03T17:44:15.491Z,28.22
2022-08-03T17:49:31.999Z,27.91
2022-08-03T17:55:54.750Z,27.95
2022-08-03T18:00:43.274Z,27.79
2022-08-03T18:06:11.341Z,27.58
2022-08-03T18:11:14.798Z,27.29
2022-08-03T18:16:38.948Z,27.07
2022-08-03T18:22:02.782Z,26.69
2022-08-03T18:27:06.791Z,26.42
2022-08-03T18:32:25.188Z,26.12
2022-08-03T18:37:28.198Z,25.89
2022-08-03T18:42:32.257Z,25.63
2022-08-03T18:47:58.842Z,25.40
2022-08-03T18:53:15.638Z,25.07
2022-08-03T18:59:02.524Z,24.72
2022-08-03T19:04:19.231Z,24.50
2022-08-03T19:09:48.503Z,24.28
2022-08-03T19:14:56.515Z,24.13
2022-08-03T19:19:58.990Z,23.77
2022-08-03T19:25:05.938Z,23.42
2022-08-03T19:30:21.845Z,23.17
2022-08-03T19:35:46.961Z,22.94
2022-08-03T19:40:57.777Z,22.57
2022-08-03T19:46:07.312Z,22.37
2022-08-03T19:56:34.853Z,21.98
2022-08-03T20:01:50.919Z,21.77
2022-08-03T20:07:00.114Z,21.59
2022-08-03T20:12:02.080Z,21.42
2022-08-03T20:17:05.672Z,21.26
2022-08-03T20:22:14.516Z,21.23
2022-08-03T20:27:20.034Z,21.10
2022-08-03T20:32:24.657Z,20.91
2022-08-03T20:37:26.744Z,20.73
2022-08-03T20:42:31.915Z,20.68
2022-08-03T20:47:39.132Z,20.65
2022-08-03T20:52:52.784Z,20.50
2022-08-03T20:57:56.670Z,20.26
2022-08-03T21:03:02.136Z,20.12
2022-08-03T21:08:07.670Z,19.97
2022-08-03T21:13:09.654Z,22.20
2022-08-03T21:18:23.459Z,19.87
2022-08-03T21:23:39.914Z,19.94
2022-08-03T21:28:50.607Z,19.94
2022-08-03T21:33:54.602Z,19.87
2022-08-03T21:38:58.033Z,19.80
2022-08-03T21:44:01.546Z,19.61
2022-08-03T21:50:07.442Z,19.41
2022-08-03T21:54:37.853Z,19.28
2022-08-03T21:59:46.366Z,19.13
2022-08-03T22:04:53.510Z,19.05
2022-08-03T22:10:00.383Z,18.90
2022-08-03T22:15:05.365Z,18.85
2022-08-03T22:20:10.608Z,18.81
2022-08-03T22:25:15.863Z,18.71
2022-08-03T22:30:19.428Z,18.65
2022-08-03T22:35:24.054Z,18.60
2022-08-03T22:40:27.769Z,18.50
2022-08-03T22:46:08.014Z,18.50
2022-08-03T22:50:51.661Z,18.48
2022-08-03T22:55:54.011Z,18.36
2022-08-03T23:01:01.846Z,18.28
2022-08-03T23:06:04.015Z,18.13
2022-08-03T23:11:10.204Z,18.05
2022-08-03T23:16:13.821Z,17.95
2022-08-03T23:21:17.794Z,17.92
2022-08-03T23:26:40.086Z,17.84
2022-08-03T23:31:44.841Z,17.80
2022-08-03T23:36:49.938Z,17.72
2022-08-03T23:41:53.076Z,17.64
2022-08-03T23:46:54.913Z,17.54
2022-08-03T23:52:08.534Z,17.46
2022-08-03T23:57:13.418Z,17.37
